sensor_id;sensor_type;location;lat;lon;timestamp;pressure;altitude;pressure_sealevel;temperature;humidity
30081;BME280;16902;50.816;12.828;2022-12-15T00:05:05;96454.44;;;-9.36;100.00
30081;BME280;16902;50.816;12.828;2022-12-15T00:10:26;96459.56;;;-9.51;100.00
30081;BME280;16902;50.816;12.828;2022-12-15T00:15:46;96458.22;;;-9.57;100.00
30081;BME280;16902;50.816;12.828;2022-12-15T00:21:07;96452.16;;;-9.69;100.00
30081;BME280;16902;50.816;12.828;2022-12-15T00:26:27;96461.16;;;-9.79;100.00
30081;BME280;16902;50.816;12.828;2022-12-15T00:31:48;96458.88;;;-9.84;100.00
30081;BME280;16902;50.816;12.828;2022-12-15T00:37:08;96465.50;;;-9.97;100.00
30081;BME280;16902;50.816;12.828;2022-12-15T00:42:28;96476.88;;;-10.20;100.00
30081;BME280;16902;50.816;12.828;2022-12-15T00:47:31;96482.75;;;-10.21;100.00
30081;BME280;16902;50.816;12.828;2022-12-15T00:52:34;96486.41;;;-10.25;100.00
30081;BME280;16902;50.816;12.828;2022-12-15T00:57:54;96497.66;;;-10.02;100.00
30081;BME280;16902;50.816;12.828;2022-12-15T01:03:21;96502.09;;;-10.05;100.00
30081;BME280;16902;50.816;12.828;2022-12-15T01:08:42;96505.72;;;-10.11;100.00
30081;BME280;16902;50.816;12.828;2022-12-15T01:14:02;96523.44;;;-10.13;100.00
30081;BME280;16902;50.816;12.828;2022-12-15T01:19:22;96530.16;;;-10.13;100.00
30081;BME280;16902;50.816;12.828;2022-12-15T01:24:43;96533.75;;;-10.17;100.00
30081;BME280;16902;50.816;12.828;2022-12-15T01:29:45;96539.91;;;-10.07;100.00
30081;BME280;16902;50.816;12.828;2022-12-15T01:34:47;96541.50;;;-10.06;100.00
30081;BME280;16902;50.816;12.828;2022-12-15T01:39:48;96539.34;;;-10.12;100.00
30081;BME280;16902;50.816;12.828;2022-12-15T01:50:27;96537.59;;;-10.42;100.00
30081;BME280;16902;50.816;12.828;2022-12-15T01:55:31;96541.59;;;-10.38;100.00
30081;BME280;16902;50.816;12.828;2022-12-15T02:00:33;96536.72;;;-10.41;100.00
30081;BME280;16902;50.816;12.828;2022-12-15T02:05:35;96546.38;;;-10.33;100.00
30081;BME280;16902;50.816;12.828;2022-12-15T02:11:07;96549.44;;;-10.28;100.00
30081;BME280;16902;50.816;12.828;2022-12-15T02:16:20;96557.28;;;-10.02;100.00
30081;BME280;16902;50.816;12.828;2022-12-15T02:21:37;96570.00;;;-9.90;100.00
30081;BME280;16902;50.816;12.828;2022-12-15T02:37:20;96583.63;;;-9.48;100.00
30081;BME280;16902;50.816;12.828;2022-12-15T02:42:25;96590.72;;;-9.54;100.00
30081;BME280;16902;50.816;12.828;2022-12-15T02:58:32;96612.91;;;-8.87;100.00
30081;BME280;16902;50.816;12.828;2022-12-15T03:03:37;96617.81;;;-8.55;100.00
30081;BME280;16902;50.816;12.828;2022-12-15T03:08:40;96633.59;;;-8.10;100.00
30081;BME280;16902;50.816;12.828;2022-12-15T03:13:42;96641.50;;;-7.88;100.00
30081;BME280;16902;50.816;12.828;2022-12-15T03:18:44;96647.25;;;-7.86;100.00
30081;BME280;16902;50.816;12.828;2022-12-15T03:23:46;96651.94;;;-7.80;100.00
30081;BME280;16902;50.816;12.828;2022-12-15T03:28:48;96649.66;;;-7.70;100.00
30081;BME280;16902;50.816;12.828;2022-12-15T03:33:50;96650.66;;;-7.72;100.00
30081;BME280;16902;50.816;12.828;2022-12-15T03:38:53;96667.28;;;-7.56;100.00
30081;BME280;16902;50.816;12.828;2022-12-15T03:43:55;96654.59;;;-7.54;100.00
30081;BME280;16902;50.816;12.828;2022-12-15T03:48:56;96673.41;;;-7.45;100.00
30081;BME280;16902;50.816;12.828;2022-12-15T03:53:59;96665.53;;;-7.41;100.00
30081;BME280;16902;50.816;12.828;2022-12-15T03:59:00;96677.47;;;-7.43;100.00
30081;BME280;16902;50.816;12.828;2022-12-15T04:04:04;96683.66;;;-7.34;100.00
30081;BME280;16902;50.816;12.828;2022-12-15T04:09:06;96691.66;;;-7.28;100.00
30081;BME280;16902;50.816;12.828;2022-12-15T04:14:08;96696.84;;;-7.29;100.00
30081;BME280;16902;50.816;12.828;2022-12-15T04:19:10;96710.66;;;-7.35;100.00
30081;BME280;16902;50.816;12.828;2022-12-15T04:24:30;96714.94;;;-7.50;100.00
30081;BME280;16902;50.816;12.828;2022-12-15T04:29:50;96719.53;;;-7.83;100.00
30081;BME280;16902;50.816;12.828;2022-12-15T04:35:11;96731.06;;;-8.08;100.00
30081;BME280;16902;50.816;12.828;2022-12-15T04:40:31;96721.97;;;-8.24;100.00
30081;BME280;16902;50.816;12.828;2022-12-15T04:45:51;96728.00;;;-8.27;100.00
30081;BME280;16902;50.816;12.828;2022-12-15T04:51:12;96720.06;;;-8.35;100.00
30081;BME280;16902;50.816;12.828;2022-12-15T04:56:32;96738.84;;;-7.96;100.00
30081;BME280;16902;50.816;12.828;2022-12-15T05:01:52;96727.47;;;-8.04;100.00
30081;BME280;16902;50.816;12.828;2022-12-15T05:07:13;96736.03;;;-8.35;100.00
30081;BME280;16902;50.816;12.828;2022-12-15T05:12:34;96749.88;;;-8.56;100.00
30081;BME280;16902;50.816;12.828;2022-12-15T05:17:54;96751.50;;;-8.69;100.00
30081;BME280;16902;50.816;12.828;2022-12-15T05:23:14;96753.75;;;-8.65;100.00
30081;BME280;16902;50.816;12.828;2022-12-15T05:28:35;96754.63;;;-8.66;100.00
30081;BME280;16902;50.816;12.828;2022-12-15T05:33:56;96772.69;;;-8.88;100.00
30081;BME280;16902;50.816;12.828;2022-12-15T05:39:05;96774.50;;;-9.06;100.00
30081;BME280;16902;50.816;12.828;2022-12-15T05:44:08;96782.00;;;-9.20;100.00
30081;BME280;16902;50.816;12.828;2022-12-15T05:49:15;96792.66;;;-9.15;100.00
30081;BME280;16902;50.816;12.828;2022-12-15T05:54:18;96804.03;;;-9.08;100.00
30081;BME280;16902;50.816;12.828;2022-12-15T05:59:20;96799.34;;;-9.14;100.00
30081;BME280;16902;50.816;12.828;2022-12-15T06:04:22;96803.06;;;-9.21;100.00
30081;BME280;16902;50.816;12.828;2022-12-15T06:09:24;96806.25;;;-9.17;100.00
30081;BME280;16902;50.816;12.828;2022-12-15T06:14:26;96814.72;;;-9.18;100.00
30081;BME280;16902;50.816;12.828;2022-12-15T06:19:27;96824.94;;;-9.21;100.00
30081;BME280;16902;50.816;12.828;2022-12-15T06:24:29;96835.25;;;-9.26;100.00
30081;BME280;16902;50.816;12.828;2022-12-15T06:29:31;96845.34;;;-9.42;100.00
30081;BME280;16902;50.816;12.828;2022-12-15T06:34:33;96848.25;;;-9.49;100.00
30081;BME280;16902;50.816;12.828;2022-12-15T06:39:35;96857.19;;;-9.44;100.00
30081;BME280;16902;50.816;12.828;2022-12-15T06:44:36;96852.00;;;-9.41;100.00
30081;BME280;16902;50.816;12.828;2022-12-15T06:49:38;96856.38;;;-9.44;100.00
30081;BME280;16902;50.816;12.828;2022-12-15T06:54:40;96857.41;;;-9.48;100.00
30081;BME280;16902;50.816;12.828;2022-12-15T06:59:43;96873.66;;;-9.54;100.00
30081;BME280;16902;50.816;12.828;2022-12-15T07:04:44;96884.28;;;-9.65;100.00
30081;BME280;16902;50.816;12.828;2022-12-15T07:09:46;96891.19;;;-9.68;100.00
30081;BME280;16902;50.816;12.828;2022-12-15T07:14:48;96890.00;;;-9.61;100.00
30081;BME280;16902;50.816;12.828;2022-12-15T07:19:54;96900.34;;;-9.50;100.00
30081;BME280;16902;50.816;12.828;2022-12-15T07:24:56;96909.16;;;-9.41;100.00
30081;BME280;16902;50.816;12.828;2022-12-15T07:29:57;96910.91;;;-9.43;100.00
30081;BME280;16902;50.816;12.828;2022-12-15T07:34:59;96908.56;;;-9.46;100.00
30081;BME280;16902;50.816;12.828;2022-12-15T07:40:02;96900.00;;;-9.60;100.00
30081;BME280;16902;50.816;12.828;2022-12-15T07:45:04;96900.56;;;-9.54;100.00
30081;BME280;16902;50.816;12.828;2022-12-15T07:50:07;96905.41;;;-9.67;100.00
30081;BME280;16902;50.816;12.828;2022-12-15T07:55:09;96913.31;;;-9.58;100.00
30081;BME280;16902;50.816;12.828;2022-12-15T08:00:11;96930.59;;;-9.67;100.00
30081;BME280;16902;50.816;12.828;2022-12-15T08:05:15;96940.22;;;-9.58;100.00
30081;BME280;16902;50.816;12.828;2022-12-15T08:10:17;96939.16;;;-9.37;100.00
30081;BME280;16902;50.816;12.828;2022-12-15T08:15:19;96945.47;;;-8.96;100.00
30081;BME280;16902;50.816;12.828;2022-12-15T08:20:20;96958.13;;;-8.65;100.00
30081;BME280;16902;50.816;12.828;2022-12-15T08:25:23;96957.91;;;-8.30;100.00
30081;BME280;16902;50.816;12.828;2022-12-15T08:30:25;96964.91;;;-7.89;100.00
30081;BME280;16902;50.816;12.828;2022-12-15T08:35:27;96961.75;;;-7.48;100.00
30081;BME280;16902;50.816;12.828;2022-12-15T08:40:48;96958.63;;;-7.09;100.00
30081;BME280;16902;50.816;12.828;2022-12-15T08:45:50;96951.56;;;-6.49;100.00
30081;BME280;16902;50.816;12.828;2022-12-15T08:50:54;96952.75;;;-6.00;100.00
30081;BME280;16902;50.816;12.828;2022-12-15T08:56:07;96959.50;;;-5.48;100.00
30081;BME280;16902;50.816;12.828;2022-12-15T09:01:12;96956.28;;;-5.12;100.00
30081;BME280;16902;50.816;12.828;2022-12-15T09:06:26;96972.88;;;-4.70;100.00
30081;BME280;16902;50.816;12.828;2022-12-15T09:11:28;96976.84;;;-4.05;100.00
30081;BME280;16902;50.816;12.828;2022-12-15T09:16:31;96973.00;;;-3.40;100.00
30081;BME280;16902;50.816;12.828;2022-12-15T09:21:33;96961.28;;;-2.96;100.00
30081;BME280;16902;50.816;12.828;2022-12-15T09:26:35;96964.63;;;-2.73;100.00
30081;BME280;16902;50.816;12.828;2022-12-15T09:31:36;96964.41;;;-2.70;100.00
30081;BME280;16902;50.816;12.828;2022-12-15T09:36:38;96975.75;;;-2.63;100.00
30081;BME280;16902;50.816;12.828;2022-12-15T09:41:48;96972.06;;;-2.70;100.00
30081;BME280;16902;50.816;12.828;2022-12-15T09:47:36;96971.44;;;-2.96;100.00
30081;BME280;16902;50.816;12.828;2022-12-15T09:52:47;96988.94;;;-3.03;100.00
30081;BME280;16902;50.816;12.828;2022-12-15T10:07:53;97026.09;;;-2.78;100.00
30081;BME280;16902;50.816;12.828;2022-12-15T10:12:59;97024.59;;;-2.58;100.00
30081;BME280;16902;50.816;12.828;2022-12-15T10:18:17;97011.97;;;-2.71;100.00
30081;BME280;16902;50.816;12.828;2022-12-15T10:23:24;97010.47;;;-2.73;100.00
30081;BME280;16902;50.816;12.828;2022-12-15T10:28:50;97018.38;;;-2.65;100.00
30081;BME280;16902;50.816;12.828;2022-12-15T10:34:08;97022.88;;;-2.58;100.00
30081;BME280;16902;50.816;12.828;2022-12-15T10:39:11;97027.47;;;-2.29;100.00
30081;BME280;16902;50.816;12.828;2022-12-15T10:44:23;97028.63;;;-1.67;100.00
30081;BME280;16902;50.816;12.828;2022-12-15T10:49:32;97016.16;;;-0.56;100.00
30081;BME280;16902;50.816;12.828;2022-12-15T10:54:35;97017.41;;;0.58;100.00
30081;BME280;16902;50.816;12.828;2022-12-15T10:59:44;97013.81;;;1.54;100.00
30081;BME280;16902;50.816;12.828;2022-12-15T11:05:03;97018.44;;;3.55;100.00
30081;BME280;16902;50.816;12.828;2022-12-15T11:20:31;97007.41;;;1.68;100.00
30081;BME280;16902;50.816;12.828;2022-12-15T11:25:42;97005.00;;;2.83;100.00
30081;BME280;16902;50.816;12.828;2022-12-15T11:31:00;97006.97;;;2.89;100.00
30081;BME280;16902;50.816;12.828;2022-12-15T11:36:36;97004.81;;;3.02;100.00
30081;BME280;16902;50.816;12.828;2022-12-15T11:47:36;97007.00;;;3.23;100.00
30081;BME280;16902;50.816;12.828;2022-12-15T11:58:07;97001.38;;;3.96;100.00
30081;BME280;16902;50.816;12.828;2022-12-15T12:09:14;96995.81;;;5.71;100.00
30081;BME280;16902;50.816;12.828;2022-12-15T12:30:00;96979.34;;;9.68;82.48
30081;BME280;16902;50.816;12.828;2022-12-15T12:35:15;96973.97;;;10.24;67.74
30081;BME280;16902;50.816;12.828;2022-12-15T12:46:00;96989.00;;;3.92;91.63
30081;BME280;16902;50.816;12.828;2022-12-15T12:51:21;96981.31;;;2.00;100.00
30081;BME280;16902;50.816;12.828;2022-12-15T12:56:38;96976.31;;;0.59;100.00
30081;BME280;16902;50.816;12.828;2022-12-15T13:01:41;96967.44;;;-0.05;100.00
30081;BME280;16902;50.816;12.828;2022-12-15T13:16:55;96968.66;;;-0.89;100.00
30081;BME280;16902;50.816;12.828;2022-12-15T13:22:37;96963.13;;;-0.94;100.00
30081;BME280;16902;50.816;12.828;2022-12-15T13:27:41;96963.31;;;-1.07;100.00
30081;BME280;16902;50.816;12.828;2022-12-15T13:32:50;96964.41;;;-1.31;100.00
30081;BME280;16902;50.816;12.828;2022-12-15T13:37:58;96972.44;;;-1.56;100.00
30081;BME280;16902;50.816;12.828;2022-12-15T13:53:25;96996.00;;;-1.96;100.00
30081;BME280;16902;50.816;12.828;2022-12-15T13:58:36;96991.47;;;-2.36;100.00
30081;BME280;16902;50.816;12.828;2022-12-15T14:03:55;96982.69;;;-2.54;100.00
30081;BME280;16902;50.816;12.828;2022-12-15T14:08:58;96977.81;;;-2.68;100.00
30081;BME280;16902;50.816;12.828;2022-12-15T14:14:00;96987.88;;;-3.23;100.00
30081;BME280;16902;50.816;12.828;2022-12-15T14:19:11;96991.66;;;-3.75;100.00
30081;BME280;16902;50.816;12.828;2022-12-15T14:29:40;97007.97;;;-4.38;100.00
30081;BME280;16902;50.816;12.828;2022-12-15T14:34:42;96997.56;;;-4.59;100.00
30081;BME280;16902;50.816;12.828;2022-12-15T14:39:51;96989.44;;;-4.77;100.00
30081;BME280;16902;50.816;12.828;2022-12-15T14:44:53;96991.19;;;-5.03;100.00
30081;BME280;16902;50.816;12.828;2022-12-15T14:50:00;96973.84;;;-5.22;100.00
30081;BME280;16902;50.816;12.828;2022-12-15T14:55:29;96971.41;;;-5.36;100.00
30081;BME280;16902;50.816;12.828;2022-12-15T15:00:34;96965.81;;;-5.28;100.00
30081;BME280;16902;50.816;12.828;2022-12-15T15:05:37;96966.41;;;-5.50;100.00
30081;BME280;16902;50.816;12.828;2022-12-15T15:10:41;96966.03;;;-5.97;100.00
30081;BME280;16902;50.816;12.828;2022-12-15T15:15:59;96964.41;;;-6.37;100.00
30081;BME280;16902;50.816;12.828;2022-12-15T15:21:05;96965.72;;;-6.73;100.00
30081;BME280;16902;50.816;12.828;2022-12-15T15:26:08;96969.00;;;-7.00;100.00
30081;BME280;16902;50.816;12.828;2022-12-15T15:36:33;96957.25;;;-7.43;100.00
30081;BME280;16902;50.816;12.828;2022-12-15T15:41:35;96967.69;;;-7.64;100.00
30081;BME280;16902;50.816;12.828;2022-12-15T15:46:46;96971.19;;;-7.96;100.00
30081;BME280;16902;50.816;12.828;2022-12-15T15:51:49;96985.00;;;-8.18;100.00
30081;BME280;16902;50.816;12.828;2022-12-15T15:56:51;96985.91;;;-8.35;100.00
30081;BME280;16902;50.816;12.828;2022-12-15T16:01:53;96999.53;;;-8.37;100.00
30081;BME280;16902;50.816;12.828;2022-12-15T16:06:59;96999.38;;;-8.50;100.00
30081;BME280;16902;50.816;12.828;2022-12-15T16:12:01;96999.84;;;-8.75;100.00
30081;BME280;16902;50.816;12.828;2022-12-15T16:17:07;97006.91;;;-8.82;100.00
30081;BME280;16902;50.816;12.828;2022-12-15T16:22:19;97008.75;;;-9.01;100.00
30081;BME280;16902;50.816;12.828;2022-12-15T16:27:21;97009.97;;;-9.08;100.00
30081;BME280;16902;50.816;12.828;2022-12-15T16:32:23;97011.38;;;-9.20;100.00
30081;BME280;16902;50.816;12.828;2022-12-15T16:37:26;97034.69;;;-9.32;100.00
30081;BME280;16902;50.816;12.828;2022-12-15T16:42:28;97039.50;;;-9.45;100.00
30081;BME280;16902;50.816;12.828;2022-12-15T16:47:30;97027.34;;;-9.54;100.00
30081;BME280;16902;50.816;12.828;2022-12-15T16:52:32;97025.00;;;-9.57;100.00
30081;BME280;16902;50.816;12.828;2022-12-15T16:57:34;97019.63;;;-9.68;100.00
30081;BME280;16902;50.816;12.828;2022-12-15T17:02:36;97014.69;;;-9.70;100.00
30081;BME280;16902;50.816;12.828;2022-12-15T17:07:39;97014.97;;;-9.76;100.00
30081;BME280;16902;50.816;12.828;2022-12-15T17:12:41;97003.50;;;-9.64;100.00
30081;BME280;16902;50.816;12.828;2022-12-15T17:17:44;96997.28;;;-9.57;100.00
30081;BME280;16902;50.816;12.828;2022-12-15T17:22:48;97002.69;;;-9.65;100.00
30081;BME280;16902;50.816;12.828;2022-12-15T17:27:53;96999.13;;;-9.61;100.00
30081;BME280;16902;50.816;12.828;2022-12-15T17:32:56;97001.91;;;-9.49;100.00
30081;BME280;16902;50.816;12.828;2022-12-15T17:37:59;96999.69;;;-9.38;100.00
30081;BME280;16902;50.816;12.828;2022-12-15T17:43:01;97001.75;;;-9.29;100.00
30081;BME280;16902;50.816;12.828;2022-12-15T17:48:03;96999.47;;;-9.00;100.00
30081;BME280;16902;50.816;12.828;2022-12-15T17:53:05;97002.63;;;-8.79;100.00
30081;BME280;16902;50.816;12.828;2022-12-15T17:58:27;96997.81;;;-8.68;100.00
30081;BME280;16902;50.816;12.828;2022-12-15T18:03:29;96990.25;;;-8.52;100.00
30081;BME280;16902;50.816;12.828;2022-12-15T18:08:32;96990.81;;;-8.47;100.00
30081;BME280;16902;50.816;12.828;2022-12-15T18:13:35;96992.50;;;-8.32;100.00
30081;BME280;16902;50.816;12.828;2022-12-15T18:18:37;96995.66;;;-8.13;100.00
30081;BME280;16902;50.816;12.828;2022-12-15T18:23:39;97000.75;;;-7.98;100.00
30081;BME280;16902;50.816;12.828;2022-12-15T18:28:41;96998.78;;;-7.93;100.00
30081;BME280;16902;50.816;12.828;2022-12-15T18:33:44;97002.22;;;-7.94;100.00
30081;BME280;16902;50.816;12.828;2022-12-15T18:38:46;96995.59;;;-7.81;100.00
30081;BME280;16902;50.816;12.828;2022-12-15T18:43:49;96981.72;;;-7.74;100.00
30081;BME280;16902;50.816;12.828;2022-12-15T18:48:51;96982.06;;;-7.80;100.00
30081;BME280;16902;50.816;12.828;2022-12-15T18:53:54;96975.84;;;-7.74;100.00
30081;BME280;16902;50.816;12.828;2022-12-15T18:58:56;96978.22;;;-7.71;100.00
30081;BME280;16902;50.816;12.828;2022-12-15T19:03:58;96986.59;;;-7.71;100.00
30081;BME280;16902;50.816;12.828;2022-12-15T19:09:03;96977.44;;;-7.58;100.00
30081;BME280;16902;50.816;12.828;2022-12-15T19:14:12;96974.84;;;-7.42;100.00
30081;BME280;16902;50.816;12.828;2022-12-15T19:19:33;96970.88;;;-7.32;100.00
30081;BME280;16902;50.816;12.828;2022-12-15T19:25:25;96981.81;;;-7.31;100.00
30081;BME280;16902;50.816;12.828;2022-12-15T19:30:31;96984.88;;;-7.26;100.00
30081;BME280;16902;50.816;12.828;2022-12-15T19:35:42;96971.97;;;-7.21;100.00
30081;BME280;16902;50.816;12.828;2022-12-15T19:40:45;96990.75;;;-7.26;100.00
30081;BME280;16902;50.816;12.828;2022-12-15T19:45:48;96970.25;;;-7.21;100.00
30081;BME280;16902;50.816;12.828;2022-12-15T19:50:50;96963.94;;;-7.28;100.00
30081;BME280;16902;50.816;12.828;2022-12-15T19:55:58;96960.31;;;-7.24;100.00
30081;BME280;16902;50.816;12.828;2022-12-15T20:01:04;96958.25;;;-7.17;100.00
30081;BME280;16902;50.816;12.828;2022-12-15T20:06:19;96954.75;;;-7.15;100.00
30081;BME280;16902;50.816;12.828;2022-12-15T20:11:28;96947.50;;;-7.07;100.00
30081;BME280;16902;50.816;12.828;2022-12-15T20:16:30;96942.44;;;-7.21;100.00
30081;BME280;16902;50.816;12.828;2022-12-15T20:21:35;96936.56;;;-7.21;100.00
30081;BME280;16902;50.816;12.828;2022-12-15T20:26:38;96930.31;;;-7.02;100.00
30081;BME280;16902;50.816;12.828;2022-12-15T20:31:41;96915.88;;;-7.00;100.00
30081;BME280;16902;50.816;12.828;2022-12-15T20:36:43;96915.78;;;-6.98;100.00
30081;BME280;16902;50.816;12.828;2022-12-15T20:41:45;96910.06;;;-6.87;100.00
30081;BME280;16902;50.816;12.828;2022-12-15T20:46:47;96892.88;;;-6.82;100.00
30081;BME280;16902;50.816;12.828;2022-12-15T20:51:49;96893.13;;;-6.73;100.00
30081;BME280;16902;50.816;12.828;2022-12-15T20:56:52;96891.06;;;-6.66;100.00
30081;BME280;16902;50.816;12.828;2022-12-15T21:01:54;96891.56;;;-6.61;100.00
30081;BME280;16902;50.816;12.828;2022-12-15T21:06:56;96889.69;;;-6.44;100.00
30081;BME280;16902;50.816;12.828;2022-12-15T21:11:58;96876.97;;;-6.43;100.00
30081;BME280;16902;50.816;12.828;2022-12-15T21:17:19;96879.09;;;-6.37;100.00
30081;BME280;16902;50.816;12.828;2022-12-15T21:22:24;96879.97;;;-6.24;100.00
30081;BME280;16902;50.816;12.828;2022-12-15T21:27:27;96874.50;;;-6.17;100.00
30081;BME280;16902;50.816;12.828;2022-12-15T21:32:28;96869.66;;;-6.08;100.00
30081;BME280;16902;50.816;12.828;2022-12-15T21:37:30;96871.97;;;-6.05;100.00
30081;BME280;16902;50.816;12.828;2022-12-15T21:42:34;96878.28;;;-5.98;100.00
30081;BME280;16902;50.816;12.828;2022-12-15T21:47:36;96876.84;;;-5.89;100.00
30081;BME280;16902;50.816;12.828;2022-12-15T21:52:56;96875.75;;;-5.85;100.00
30081;BME280;16902;50.816;12.828;2022-12-15T21:57:59;96882.31;;;-5.82;100.00
30081;BME280;16902;50.816;12.828;2022-12-15T22:03:01;96885.03;;;-5.85;100.00
30081;BME280;16902;50.816;12.828;2022-12-15T22:08:17;96876.66;;;-5.73;100.00
30081;BME280;16902;50.816;12.828;2022-12-15T22:13:21;96879.28;;;-5.75;100.00
30081;BME280;16902;50.816;12.828;2022-12-15T22:18:23;96893.47;;;-5.85;100.00
30081;BME280;16902;50.816;12.828;2022-12-15T22:23:25;96902.69;;;-5.84;100.00
30081;BME280;16902;50.816;12.828;2022-12-15T22:28:27;96907.53;;;-5.81;100.00
30081;BME280;16902;50.816;12.828;2022-12-15T22:33:29;96911.09;;;-5.83;100.00
30081;BME280;16902;50.816;12.828;2022-12-15T22:38:32;96913.44;;;-5.68;100.00
30081;BME280;16902;50.816;12.828;2022-12-15T22:48:39;96910.63;;;-5.50;100.00
30081;BME280;16902;50.816;12.828;2022-12-15T22:53:42;96918.81;;;-5.47;100.00
30081;BME280;16902;50.816;12.828;2022-12-15T22:58:45;96934.34;;;-5.51;100.00
30081;BME280;16902;50.816;12.828;2022-12-15T23:03:49;96933.75;;;-5.55;100.00
30081;BME280;16902;50.816;12.828;2022-12-15T23:08:51;96920.25;;;-5.68;100.00
30081;BME280;16902;50.816;12.828;2022-12-15T23:13:56;96896.13;;;-5.74;100.00
30081;BME280;16902;50.816;12.828;2022-12-15T23:18:58;96880.00;;;-5.60;100.00
30081;BME280;16902;50.816;12.828;2022-12-15T23:24:00;96871.38;;;-5.57;100.00
30081;BME280;16902;50.816;12.828;2022-12-15T23:29:02;96862.66;;;-5.53;100.00
30081;BME280;16902;50.816;12.828;2022-12-15T23:34:04;96857.56;;;-5.53;100.00
30081;BME280;16902;50.816;12.828;2022-12-15T23:39:05;96843.97;;;-5.52;100.00
30081;BME280;16902;50.816;12.828;2022-12-15T23:44:07;96841.84;;;-5.46;100.00
30081;BME280;16902;50.816;12.828;2022-12-15T23:49:08;96850.97;;;-5.43;100.00
30081;BME280;16902;50.816;12.828;2022-12-15T23:54:10;96854.44;;;-5.44;100.00
30081;BME280;16902;50.816;12.828;2022-12-15T23:59:12;96851.69;;;-5.41;100.00
